EGKB METAR and TAF | Updated Today

EGKB METAR

London Biggin Hill Airport

Observation time: 33 min. ago

EGKB 061920Z 21010KT CAVOK 12/10 Q1027

Need help? Read our tutorial on how to read METARs or read the parsed version below.

London Biggin Hill Airport (EGKB) METAR

  • Weather conditions on Thu, 06 Oct 2022 19:20:00 +0000 (33 min. ago):
  • Present conditions: Dry
  • Clouds: Clear skies
  • Visibility: Greater than 10 km
  • Wind: 210 degrees at 10 knots
  • Temperature: 12 celsius
  • Dew point: 10 celsius
  • Pressure: 1027 millibars
  • Remarks: None


Useful to know...

EGKB TAF

London Biggin Hill Airport

TAF EGKB 061658Z 0618/0622 21009KT 9999 SCT045
Observation time: 2:55 hr. ago
Need help? Read our tutorial on how to read TAFs or read the parsed version below.

Parsed version of TAF for London Biggin Hill Airport (EGKB)

  • From 06 October at 18:00 UTC, to day 06 of the month at 22:00 UTC
  • Clouds: Scattered at 1372 meters
  • Visibility: Greater than 10 km
  • Wind: 210 degrees at 9